Valley Township, Pennsylvania
Current Conditions -  °F | °C
As of 9:35 PM on Thursday 20 Nov 2014 (Local Time) from KMQS Reporting Station
Clear Clear  
Wind Chill: 19°   Ceiling: Unl
Heat Index: 28°   Visibility: 10mi
Dew Point: 10°   Wind: 10mph
Humidity: 47%   Direction: 320°NW
Pressure: 30.03"   Gusts: NA
Location:  39.97°N, 75.8325°W
Report Text: KMQS 210235Z AUTO 32009KT 10SM CLR M02/M12 A3003 RMK AO2
Loading
Personal Weather Stations






























Interactive Weather Map New forecast layout! Learn more

10-Day Weather Forecast

Advertisements
Track Severe Weather on mobile